Time;durP1;ratioP1;P1;durP2;ratioP2;P2;SDS_P1;SDS_P2;PMS_P1;PMS_P2;Temp;Humidity;BMP_temperature;BMP_pressure;BME280_temperature;BME280_humidity;BME280_pressure;Samples;Min_cycle;Max_cycle;Signal;HPM_P1;HPM_P2
2022/08/21 00:03:03;;;;;;;2.90;1.30;;;20.10;99.90;;;;;;6314673;28;20298;-65
2022/08/21 00:06:10;;;;;;;3.08;1.42;;;20.00;99.90;;;;;;6338267;28;20271;-66
2022/08/21 00:09:18;;;;;;;1.75;1.35;;;19.90;99.90;;;;;;6338333;28;20293;-66
2022/08/21 00:12:24;;;;;;;3.45;1.50;;;19.90;99.90;;;;;;6338069;28;20261;-66
2022/08/21 00:15:34;;;;;;;5.90;1.80;;;20.00;99.90;;;;;;6338639;28;20275;-66
2022/08/21 00:18:39;;;;;;;1.98;1.15;;;20.00;99.90;;;;;;6337987;28;20298;-66
2022/08/21 00:21:45;;;;;;;2.65;1.67;;;20.00;99.90;;;;;;6338464;28;20286;-66
2022/08/21 00:24:50;;;;;;;2.47;1.60;;;20.00;99.90;;;;;;6338037;28;20293;-66
2022/08/21 00:27:56;;;;;;;5.72;1.48;;;20.00;99.90;;;;;;6337441;28;20545;-67
2022/08/21 00:31:04;;;;;;;4.55;1.40;;;20.00;99.90;;;;;;6337681;28;20294;-65
2022/08/21 00:34:12;;;;;;;3.70;1.50;;;20.00;99.90;;;;;;6337197;28;20306;-66
2022/08/21 00:37:18;;;;;;;4.25;1.50;;;19.90;99.90;;;;;;6337409;28;20270;-66
2022/08/21 00:40:27;;;;;;;3.42;1.60;;;19.90;99.90;;;;;;6338014;28;20277;-65
2022/08/21 00:43:37;;;;;;;2.15;1.30;;;19.80;99.90;;;;;;6337414;28;20297;-66
2022/08/21 00:46:44;;;;;;;3.97;1.65;;;19.70;99.90;;;;;;6337495;28;20269;-66
2022/08/21 00:49:49;;;;;;;2.65;1.80;;;19.70;99.90;;;;;;6337286;28;20293;-66
2022/08/21 00:52:55;;;;;;;1.58;1.30;;;19.80;99.90;;;;;;6337065;28;20323;-66
2022/08/21 00:56:02;;;;;;;2.58;1.50;;;19.80;99.90;;;;;;6337185;28;20270;-66
2022/08/21 00:59:10;;;;;;;5.75;1.63;;;19.80;99.90;;;;;;6337022;28;20298;-66
2022/08/21 01:02:17;;;;;;;1.83;1.42;;;19.80;99.90;;;;;;6336659;28;20270;-66
2022/08/21 01:05:22;;;;;;;1.92;1.55;;;19.80;99.90;;;;;;6315030;28;20307;-66
2022/08/21 01:08:29;;;;;;;2.47;1.52;;;19.70;99.90;;;;;;6311777;28;20294;-66
2022/08/21 01:11:35;;;;;;;1.65;1.60;;;19.80;99.90;;;;;;6306429;28;20282;-66
2022/08/21 01:14:42;;;;;;;3.13;1.50;;;19.80;99.90;;;;;;6311500;28;20298;-66
2022/08/21 01:17:50;;;;;;;3.47;1.48;;;19.70;99.90;;;;;;6311110;28;20495;-66
2022/08/21 01:21:09;;;;;;;6.57;1.65;;;19.70;99.90;;;;;;6311437;28;20270;-66
2022/08/21 01:24:17;;;;;;;2.97;1.55;;;19.70;99.90;;;;;;6311089;28;20294;-66
2022/08/21 01:27:22;;;;;;;5.28;1.50;;;19.70;99.90;;;;;;6311245;28;20266;-66
2022/08/21 01:30:29;;;;;;;5.70;2.03;;;19.70;99.90;;;;;;6311644;28;20275;-66
2022/08/21 01:33:35;;;;;;;6.88;1.77;;;19.70;99.90;;;;;;6311108;28;20299;-66
2022/08/21 01:36:42;;;;;;;3.65;1.80;;;19.70;99.90;;;;;;6311259;28;20456;-66
2022/08/21 01:39:47;;;;;;;4.72;1.70;;;19.70;99.90;;;;;;6311021;28;20290;-66
2022/08/21 01:42:53;;;;;;;3.97;2.00;;;19.70;99.90;;;;;;6310776;28;20299;-66
2022/08/21 01:45:58;;;;;;;4.57;1.60;;;19.60;99.90;;;;;;6311227;28;20553;-66
2022/08/21 01:49:04;;;;;;;4.75;1.83;;;19.60;99.90;;;;;;6310536;28;20589;-66
2022/08/21 01:52:11;;;;;;;3.65;1.60;;;19.70;99.90;;;;;;6310119;28;20480;-66
2022/08/21 01:55:19;;;;;;;1.45;1.30;;;19.70;99.90;;;;;;6310651;28;20275;-65
2022/08/21 01:58:24;;;;;;;3.72;2.47;;;19.60;99.90;;;;;;6310480;28;20298;-66
2022/08/21 02:01:30;;;;;;;4.07;1.58;;;19.70;99.90;;;;;;6310859;28;20294;-66
2022/08/21 02:04:35;;;;;;;3.28;1.40;;;19.60;99.90;;;;;;6324884;28;20299;-67
2022/08/21 02:07:51;;;;;;;3.47;1.60;;;19.60;99.90;;;;;;6335488;28;20294;-66
2022/08/21 02:10:56;;;;;;;4.25;1.63;;;19.70;99.90;;;;;;6330353;28;20266;-66
2022/08/21 02:14:01;;;;;;;4.15;1.85;;;19.50;99.90;;;;;;6334840;28;20289;-67
2022/08/21 02:17:07;;;;;;;3.88;1.48;;;19.50;99.90;;;;;;6335672;28;20559;-67
2022/08/21 02:20:25;;;;;;;3.08;1.65;;;19.60;99.90;;;;;;6334951;28;20274;-66
2022/08/21 02:23:32;;;;;;;2.72;1.65;;;19.40;99.90;;;;;;6335305;28;20297;-67
2022/08/21 02:26:37;;;;;;;4.45;1.80;;;19.40;99.90;;;;;;6335541;28;20269;-66
2022/08/21 02:29:42;;;;;;;6.43;1.40;;;19.50;99.90;;;;;;6334339;28;20312;-66
2022/08/21 02:32:48;;;;;;;11.90;2.30;;;19.60;99.90;;;;;;6335231;28;20301;-65
2022/08/21 02:35:54;;;;;;;2.05;1.38;;;19.60;99.90;;;;;;6335525;28;20304;-65
2022/08/21 02:39:00;;;;;;;4.85;1.60;;;19.60;99.90;;;;;;6334965;28;20380;-65
2022/08/21 02:42:06;;;;;;;3.10;1.70;;;19.60;99.90;;;;;;6335734;28;20273;-65
2022/08/21 02:45:13;;;;;;;4.78;1.58;;;19.60;99.90;;;;;;6334797;28;20273;-65
2022/08/21 02:48:22;;;;;;;6.05;2.00;;;19.50;99.90;;;;;;6327465;28;20306;-65
2022/08/21 02:51:28;;;;;;;6.28;2.33;;;19.40;99.90;;;;;;6334362;28;20273;-66
2022/08/21 02:54:34;;;;;;;3.00;1.77;;;19.40;99.90;;;;;;6334879;28;20298;-66
2022/08/21 02:57:40;;;;;;;1.75;1.65;;;19.40;99.90;;;;;;6335012;28;20297;-66
2022/08/21 03:00:48;;;;;;;3.13;1.70;;;19.40;99.90;;;;;;6335062;28;20449;-66
2022/08/21 03:03:53;;;;;;;4.82;2.00;;;19.30;99.90;;;;;;6323692;28;20396;-66
2022/08/21 03:06:58;;;;;;;4.85;1.80;;;19.40;99.90;;;;;;6310206;28;20267;-66
2022/08/21 03:10:06;;;;;;;3.83;1.70;;;19.30;99.90;;;;;;6309876;28;20586;-66
2022/08/21 03:13:13;;;;;;;6.68;1.90;;;19.40;99.90;;;;;;6301147;28;20293;-66
2022/08/21 03:16:20;;;;;;;4.75;1.70;;;19.30;99.90;;;;;;6302502;28;20270;-66
2022/08/21 03:19:25;;;;;;;6.45;1.92;;;19.10;99.90;;;;;;6309635;28;20294;-66
2022/08/21 03:22:31;;;;;;;1.95;1.55;;;19.20;99.90;;;;;;6309568;28;20282;-66
2022/08/21 03:25:38;;;;;;;4.78;2.15;;;19.10;99.90;;;;;;6309538;28;20302;-66
2022/08/21 03:28:45;;;;;;;3.65;1.90;;;19.20;99.90;;;;;;6309266;28;20298;-66
2022/08/21 03:31:50;;;;;;;6.88;2.03;;;19.10;99.90;;;;;;6309786;28;20430;-66
2022/08/21 03:34:55;;;;;;;3.03;1.92;;;19.20;99.90;;;;;;6309479;28;20301;-66
2022/08/21 03:38:00;;;;;;;6.45;1.80;;;19.20;99.90;;;;;;6309991;28;20267;-66
2022/08/21 03:41:08;;;;;;;7.05;1.90;;;19.20;99.90;;;;;;6311475;28;20274;-66
2022/08/21 03:44:13;;;;;;;5.65;2.08;;;19.20;99.90;;;;;;6313730;28;20302;-66
2022/08/21 03:47:19;;;;;;;5.45;2.25;;;19.10;99.90;;;;;;6313750;28;20274;-65
2022/08/21 03:50:26;;;;;;;6.70;1.60;;;19.10;99.90;;;;;;6313587;28;20491;-65
2022/08/21 03:53:31;;;;;;;6.65;1.95;;;19.10;99.90;;;;;;6313363;28;20436;-65
2022/08/21 03:56:39;;;;;;;4.50;1.88;;;19.10;99.90;;;;;;6313439;28;20274;-66
2022/08/21 03:59:44;;;;;;;4.40;2.22;;;19.10;99.90;;;;;;6313206;28;20294;-66
2022/08/21 04:02:50;;;;;;;6.13;2.13;;;19.20;99.90;;;;;;6313634;28;20274;-66
2022/08/21 04:05:55;;;;;;;2.63;1.70;;;19.20;99.90;;;;;;6338593;28;20290;-66
2022/08/21 04:09:01;;;;;;;9.45;2.10;;;19.20;99.90;;;;;;6338224;28;20293;-66
2022/08/21 04:12:09;;;;;;;8.77;2.10;;;19.20;99.90;;;;;;6334053;28;20267;-66
2022/08/21 04:15:14;;;;;;;2.83;1.80;;;19.20;99.90;;;;;;6338337;28;20297;-67
2022/08/21 04:18:19;;;;;;;4.20;2.00;;;19.30;99.90;;;;;;6338102;28;20269;-66
2022/08/21 04:21:25;;;;;;;7.18;2.08;;;19.30;99.90;;;;;;6338614;28;20289;-66
2022/08/21 04:24:30;;;;;;;6.72;2.70;;;19.30;99.90;;;;;;6337856;28;20309;-66
2022/08/21 04:27:36;;;;;;;10.27;2.25;;;19.30;99.90;;;;;;6338685;28;20545;-66
2022/08/21 04:30:41;;;;;;;4.57;1.95;;;19.20;99.90;;;;;;6337820;28;20313;-66
2022/08/21 04:33:47;;;;;;;4.00;2.10;;;19.20;99.90;;;;;;6337831;28;20297;-66
2022/08/21 04:36:53;;;;;;;9.30;1.70;;;19.20;99.90;;;;;;6337770;28;20274;-66
2022/08/21 04:39:58;;;;;;;3.95;1.75;;;19.30;99.90;;;;;;6337375;28;20469;-68
2022/08/21 04:43:08;;;;;;;7.88;2.28;;;19.20;99.90;;;;;;6338042;28;20274;-66
2022/08/21 04:46:13;;;;;;;3.58;1.75;;;19.20;99.90;;;;;;6336537;28;20431;-66
2022/08/21 04:49:18;;;;;;;9.82;2.60;;;19.10;99.90;;;;;;6337115;28;20581;-66
2022/08/21 04:52:24;;;;;;;8.80;2.00;;;18.90;99.90;;;;;;6336918;28;20269;-66
2022/08/21 04:55:29;;;;;;;4.40;2.53;;;19.10;99.90;;;;;;6336891;28;20335;-66
2022/08/21 04:58:37;;;;;;;3.65;2.03;;;19.00;99.90;;;;;;6337004;28;20292;-67
2022/08/21 05:01:44;;;;;;;5.85;2.33;;;19.10;99.90;;;;;;6337483;28;20270;-66
2022/08/21 05:04:52;;;;;;;3.55;1.75;;;19.00;99.90;;;;;;6320054;28;20298;-66
2022/08/21 05:07:58;;;;;;;4.20;1.75;;;19.10;99.90;;;;;;6311567;28;20271;-65
2022/08/21 05:11:04;;;;;;;8.48;1.95;;;19.10;99.90;;;;;;6308835;28;20290;-65
2022/08/21 05:14:12;;;;;;;5.40;1.80;;;19.20;99.90;;;;;;6310644;28;20313;-66
2022/08/21 05:17:17;;;;;;;3.97;2.00;;;19.20;99.90;;;;;;6311594;28;20274;-66
2022/08/21 05:20:22;;;;;;;3.00;2.13;;;19.20;99.90;;;;;;6311075;28;20294;-65
2022/08/21 05:23:27;;;;;;;5.43;1.90;;;19.20;99.90;;;;;;6311104;28;20286;-65
2022/08/21 05:26:33;;;;;;;7.95;1.80;;;19.20;99.90;;;;;;6311860;28;20278;-65
2022/08/21 05:29:51;;;;;;;5.60;1.98;;;19.20;99.90;;;;;;6311027;28;20306;-66
2022/08/21 05:32:58;;;;;;;5.53;1.92;;;19.10;99.90;;;;;;6311186;28;20326;-66
2022/08/21 05:36:05;;;;;;;5.65;2.50;;;19.20;99.90;;;;;;6310668;28;20291;-67
2022/08/21 05:39:11;;;;;;;1.98;1.60;;;19.20;99.90;;;;;;6311032;28;20294;-66
2022/08/21 05:42:16;;;;;;;3.63;2.00;;;19.20;99.90;;;;;;6311381;28;20274;-66
2022/08/21 05:45:24;;;;;;;4.53;2.35;;;19.20;99.90;;;;;;6310620;28;20302;-66
2022/08/21 05:48:48;;;;;;;5.53;2.10;;;19.20;99.90;;;;;;6310817;28;20294;-65
2022/08/21 05:51:53;;;;;;;7.82;1.88;;;19.20;99.90;;;;;;6311095;28;20269;-64
2022/08/21 05:54:58;;;;;;;8.48;2.10;;;19.20;99.90;;;;;;6310285;28;20302;-65
2022/08/21 05:58:04;;;;;;;5.78;2.40;;;19.30;99.90;;;;;;6310805;28;20274;-68
2022/08/21 06:01:11;;;;;;;5.78;1.92;;;19.30;99.90;;;;;;6310602;28;20481;-66
2022/08/21 06:04:17;;;;;;;3.85;1.95;;;19.40;99.90;;;;;;6321828;28;20301;-66
2022/08/21 06:07:22;;;;;;;4.32;1.80;;;19.30;99.90;;;;;;6336338;28;20275;-66
2022/08/21 06:10:27;;;;;;;4.13;2.15;;;19.30;99.90;;;;;;6335559;28;20294;-67
2022/08/21 06:13:34;;;;;;;4.07;1.90;;;19.40;99.90;;;;;;6331036;28;20289;-66
2022/08/21 06:16:40;;;;;;;3.22;1.80;;;19.40;99.90;;;;;;6335669;28;20290;-66
2022/08/21 06:19:45;;;;;;;7.65;1.85;;;19.40;99.90;;;;;;6335309;28;20294;-66
2022/08/21 06:22:50;;;;;;;5.22;2.20;;;19.40;99.90;;;;;;6335621;28;20438;-66
2022/08/21 06:25:56;;;;;;;5.07;2.13;;;19.40;99.90;;;;;;6333499;28;20301;-66
2022/08/21 06:29:01;;;;;;;3.63;1.90;;;19.30;99.90;;;;;;6334938;28;20293;-66
2022/08/21 06:32:11;;;;;;;6.63;1.95;;;19.30;99.90;;;;;;6335667;28;20269;-66
2022/08/21 06:35:16;;;;;;;5.97;1.90;;;19.20;99.90;;;;;;6334967;28;20324;-66
2022/08/21 06:38:21;;;;;;;5.13;2.22;;;19.30;99.90;;;;;;6335077;28;20265;-66
2022/08/21 06:41:27;;;;;;;5.00;2.03;;;19.30;99.90;;;;;;6335181;28;20270;-66
2022/08/21 06:44:32;;;;;;;3.92;1.95;;;19.30;99.90;;;;;;6335005;28;20298;-67
2022/08/21 06:47:39;;;;;;;4.57;1.90;;;19.40;99.90;;;;;;6335386;28;20462;-66
2022/08/21 06:50:44;;;;;;;7.90;2.58;;;19.60;99.90;;;;;;6334986;28;20301;-66
2022/08/21 06:53:50;;;;;;;3.72;2.17;;;19.50;99.90;;;;;;6334400;28;20301;-66
2022/08/21 06:56:55;;;;;;;6.80;2.13;;;19.60;99.90;;;;;;6335182;28;20294;-66
2022/08/21 07:00:00;;;;;;;6.35;2.08;;;19.60;99.90;;;;;;6334666;28;20289;-67
2022/08/21 07:03:08;;;;;;;8.52;2.40;;;19.60;99.90;;;;;;6332136;28;20278;-66
2022/08/21 07:06:13;;;;;;;3.78;2.35;;;19.60;99.90;;;;;;6301759;28;20271;-67
2022/08/21 07:09:18;;;;;;;7.18;2.10;;;19.60;99.90;;;;;;6309572;28;20298;-66
2022/08/21 07:12:28;;;;;;;7.80;1.88;;;19.60;99.90;;;;;;6310080;28;20267;-66
2022/08/21 07:15:33;;;;;;;4.32;2.00;;;19.50;99.90;;;;;;6313232;28;20314;-67
2022/08/21 07:18:40;;;;;;;6.25;2.13;;;19.60;99.90;;;;;;6314003;28;20294;-66
2022/08/21 07:21:45;;;;;;;4.80;2.20;;;19.60;99.90;;;;;;6314330;28;20270;-65
2022/08/21 07:24:50;;;;;;;6.53;1.85;;;19.70;99.90;;;;;;6313974;28;20289;-66
2022/08/21 07:27:56;;;;;;;4.15;1.95;;;19.70;99.90;;;;;;6314159;28;20278;-66
2022/08/21 07:31:04;;;;;;;4.75;1.75;;;19.70;99.90;;;;;;6313708;28;20299;-68
2022/08/21 07:34:12;;;;;;;7.60;2.60;;;19.70;99.90;;;;;;6313418;28;20294;-66
2022/08/21 07:37:17;;;;;;;9.45;2.70;;;19.70;99.90;;;;;;6314096;28;20290;-66
2022/08/21 07:40:24;;;;;;;3.33;1.80;;;19.70;99.90;;;;;;6313586;28;20301;-66
2022/08/21 07:43:30;;;;;;;2.53;1.90;;;19.70;99.90;;;;;;6313378;28;20460;-66
2022/08/21 07:46:35;;;;;;;5.03;2.30;;;19.60;99.90;;;;;;6314017;28;20413;-65
2022/08/21 07:49:42;;;;;;;8.68;2.42;;;19.60;99.90;;;;;;6313180;28;20290;-66
2022/08/21 07:52:47;;;;;;;6.43;2.13;;;19.70;99.90;;;;;;6313853;28;20271;-66
2022/08/21 07:55:52;;;;;;;6.25;2.35;;;19.70;99.90;;;;;;6312935;28;20298;-66
2022/08/21 07:58:58;;;;;;;4.78;1.80;;;19.80;99.90;;;;;;6313373;28;20295;-66
2022/08/21 08:02:03;;;;;;;6.40;2.05;;;19.80;99.90;;;;;;6313619;28;20270;-67
2022/08/21 08:05:12;;;;;;;5.18;2.30;;;19.90;99.90;;;;;;6332329;28;20569;-67
2022/08/21 08:08:18;;;;;;;5.07;2.03;;;19.90;99.90;;;;;;6338065;28;20570;-65
2022/08/21 08:11:23;;;;;;;5.78;2.47;;;20.00;99.90;;;;;;6338163;28;20447;-67
2022/08/21 08:14:28;;;;;;;4.85;2.17;;;20.10;99.90;;;;;;6337727;28;20293;-65
2022/08/21 08:17:35;;;;;;;5.95;2.65;;;20.20;99.90;;;;;;6338162;28;20473;-66
2022/08/21 08:20:42;;;;;;;5.45;2.40;;;20.30;99.90;;;;;;6337185;28;20293;-66
2022/08/21 08:23:48;;;;;;;4.93;2.20;;;20.30;99.90;;;;;;6319741;28;20298;-66
2022/08/21 08:26:53;;;;;;;5.90;2.50;;;20.50;99.90;;;;;;6337358;28;20278;-67
2022/08/21 08:29:59;;;;;;;5.95;2.33;;;20.60;99.90;;;;;;6337736;28;20597;-65
2022/08/21 08:33:04;;;;;;;9.30;2.20;;;20.60;99.90;;;;;;6337212;28;20273;-68
2022/08/21 08:36:17;;;;;;;2.47;1.83;;;20.70;99.90;;;;;;6337557;28;20269;-66
2022/08/21 08:39:23;;;;;;;4.57;2.42;;;20.70;99.90;;;;;;6336524;28;20293;-66
2022/08/21 08:42:36;;;;;;;7.03;2.45;;;20.80;99.90;;;;;;6337265;28;20293;-66
2022/08/21 08:45:47;;;;;;;2.80;2.00;;;20.80;99.90;;;;;;6337117;28;20294;-66
2022/08/21 08:49:02;;;;;;;7.20;2.22;;;20.80;99.90;;;;;;6335468;28;20297;-65
2022/08/21 08:52:24;;;;;;;4.97;2.38;;;20.90;99.90;;;;;;6337717;28;20265;-66
2022/08/21 08:55:34;;;;;;;8.40;3.00;;;21.00;99.90;;;;;;6336672;28;20293;-65
2022/08/21 08:58:43;;;;;;;8.23;2.28;;;20.90;99.90;;;;;;6336398;28;20298;-66
2022/08/21 09:01:48;;;;;;;6.32;2.20;;;21.00;99.90;;;;;;6337307;28;20440;-66
2022/08/21 09:04:54;;;;;;;5.25;3.85;;;21.00;99.90;;;;;;6318703;28;20303;-66
2022/08/21 09:08:21;;;;;;;8.23;2.33;;;20.80;99.90;;;;;;6311380;28;20561;-66
2022/08/21 09:11:33;;;;;;;3.40;1.95;;;20.80;99.90;;;;;;6305856;28;20279;-65
2022/08/21 09:14:51;;;;;;;7.03;2.33;;;20.90;99.90;;;;;;6311098;28;20314;-66
2022/08/21 09:18:21;;;;;;;2.30;2.05;;;21.00;99.90;;;;;;6311188;28;20286;-66
2022/08/21 09:21:37;;;;;;;3.90;2.30;;;21.20;99.90;;;;;;6311052;28;20274;-65
2022/08/21 09:24:51;;;;;;;6.43;2.20;;;21.30;99.90;;;;;;6310474;28;20286;-66
2022/08/21 09:27:56;;;;;;;3.30;1.95;;;21.30;99.90;;;;;;6311658;28;20429;-66
2022/08/21 09:31:02;;;;;;;4.30;2.25;;;21.20;99.90;;;;;;6310885;28;20581;-66
2022/08/21 09:34:13;;;;;;;5.30;2.00;;;21.30;99.90;;;;;;6310884;28;20294;-67
2022/08/21 09:37:19;;;;;;;5.90;2.17;;;21.30;99.90;;;;;;6310984;28;20286;-66
2022/08/21 09:40:39;;;;;;;5.80;2.08;;;21.50;99.90;;;;;;6310528;28;20294;-66
2022/08/21 09:43:53;;;;;;;3.95;1.90;;;21.60;99.90;;;;;;6310060;28;20302;-66
2022/08/21 09:46:59;;;;;;;3.42;1.92;;;21.70;99.90;;;;;;6310932;28;20270;-66
2022/08/21 09:50:12;;;;;;;2.55;1.90;;;21.80;99.90;;;;;;6310094;28;20586;-66
2022/08/21 09:53:20;;;;;;;2.53;2.15;;;21.60;99.90;;;;;;6310222;28;20271;-65
2022/08/21 09:59:56;;;;;;;4.85;2.10;;;21.70;99.90;;;;;;6309708;28;20305;-67
2022/08/21 10:03:14;;;;;;;3.08;2.40;;;21.70;99.90;;;;;;6312141;28;20270;-67
2022/08/21 10:06:26;;;;;;;2.90;1.90;;;21.60;99.90;;;;;;6334298;28;20273;-66
2022/08/21 10:09:33;;;;;;;2.67;1.90;;;21.70;99.90;;;;;;6335121;28;20369;-65
2022/08/21 10:12:49;;;;;;;1.70;1.60;;;21.70;99.90;;;;;;6330925;28;20429;-66
2022/08/21 10:16:09;;;;;;;7.97;1.80;;;21.70;99.90;;;;;;6335101;28;20298;-66
2022/08/21 10:19:23;;;;;;;2.05;1.90;;;21.50;99.90;;;;;;6334814;28;20305;-65
2022/08/21 10:22:39;;;;;;;3.92;2.03;;;21.60;99.90;;;;;;6335012;28;20270;-66
2022/08/21 10:25:51;;;;;;;2.67;1.90;;;21.60;99.90;;;;;;6334918;28;20294;-66
2022/08/21 10:29:46;;;;;;;2.75;1.77;;;21.70;99.90;;;;;;6334894;28;20297;-66
2022/08/21 10:33:03;;;;;;;5.85;1.80;;;21.80;99.90;;;;;;6335107;28;20270;-66
2022/08/21 10:36:15;;;;;;;3.03;1.70;;;21.80;99.90;;;;;;6334192;28;20270;-66
2022/08/21 10:39:25;;;;;;;2.78;1.90;;;21.80;99.90;;;;;;6334715;28;20297;-66
2022/08/21 10:42:50;;;;;;;5.65;2.30;;;21.80;99.90;;;;;;6334738;28;20471;-65
2022/08/21 10:46:05;;;;;;;4.35;2.03;;;21.90;99.90;;;;;;6334092;28;20293;-64
2022/08/21 10:49:23;;;;;;;5.03;2.20;;;21.90;99.90;;;;;;6335939;28;20298;-65
2022/08/21 10:52:52;;;;;;;2.00;1.80;;;21.80;99.90;;;;;;6339968;28;20270;-65
2022/08/21 10:56:03;;;;;;;5.85;1.88;;;21.80;99.90;;;;;;6339644;28;20320;-66
2022/08/21 10:59:25;;;;;;;5.57;2.00;;;21.80;99.90;;;;;;6339571;28;20302;-66
2022/08/21 11:02:38;;;;;;;8.30;2.30;;;21.70;99.90;;;;;;6339467;28;20269;-66
2022/08/21 11:05:49;;;;;;;4.68;1.80;;;21.90;99.90;;;;;;6314674;28;20258;-65
2022/08/21 11:08:59;;;;;;;4.15;1.77;;;21.80;99.90;;;;;;6314080;28;20593;-66
2022/08/21 11:12:21;;;;;;;4.53;2.10;;;22.00;99.90;;;;;;6310131;28;20267;-65
2022/08/21 11:15:41;;;;;;;3.40;2.28;;;21.80;99.90;;;;;;6313673;28;20290;-66
2022/08/21 11:18:53;;;;;;;3.20;1.90;;;21.90;99.90;;;;;;6313698;28;20298;-66
2022/08/21 11:22:12;;;;;;;2.47;1.90;;;22.00;99.90;;;;;;6313821;28;20417;-65
2022/08/21 11:25:23;;;;;;;3.63;1.98;;;22.00;99.90;;;;;;6305915;28;20436;-66
2022/08/21 11:28:44;;;;;;;3.00;1.95;;;22.10;99.90;;;;;;6313580;28;20302;-67
2022/08/21 11:32:30;;;;;;;6.82;2.22;;;22.10;99.90;;;;;;6313724;28;20270;-66
2022/08/21 11:35:47;;;;;;;2.00;1.90;;;22.20;99.90;;;;;;6307733;28;20294;-65
2022/08/21 11:39:01;;;;;;;2.33;2.05;;;22.30;99.90;;;;;;6312518;28;20303;-65
2022/08/21 11:42:20;;;;;;;1.75;1.75;;;22.30;99.90;;;;;;6313621;28;20282;-66
2022/08/21 11:45:33;;;;;;;2.28;1.75;;;22.20;99.90;;;;;;6312998;28;20294;-66
2022/08/21 11:48:46;;;;;;;2.95;1.70;;;22.30;99.90;;;;;;6313230;28;20294;-67
2022/08/21 11:51:57;;;;;;;3.25;1.80;;;22.40;99.90;;;;;;6313394;28;20270;-65
2022/08/21 11:55:07;;;;;;;1.70;1.70;;;22.40;99.90;;;;;;6312843;28;20295;-63
2022/08/21 11:58:21;;;;;;;5.30;2.10;;;22.40;99.90;;;;;;6312281;28;20270;-66
2022/08/21 12:01:32;;;;;;;2.00;1.80;;;22.40;99.90;;;;;;6311890;28;20290;-67
2022/08/21 12:04:47;;;;;;;3.28;1.90;;;22.50;99.90;;;;;;6327473;28;20293;-68
2022/08/21 12:08:06;;;;;;;2.03;1.75;;;22.50;99.60;;;;;;6338096;28;20362;-66
2022/08/21 12:11:25;;;;;;;1.67;1.58;;;22.50;99.80;;;;;;6333291;28;20278;-66
2022/08/21 12:14:41;;;;;;;1.90;1.70;;;22.40;99.30;;;;;;6331660;28;20302;-65
2022/08/21 12:18:01;;;;;;;2.83;1.92;;;22.50;99.50;;;;;;6338001;28;20550;-66
2022/08/21 12:21:26;;;;;;;3.80;2.10;;;22.50;99.60;;;;;;6337057;28;20298;-67
2022/08/21 12:24:39;;;;;;;1.80;1.70;;;22.50;99.00;;;;;;6337560;28;20448;-66
2022/08/21 12:27:47;;;;;;;1.75;1.65;;;22.60;98.70;;;;;;6337681;28;20557;-66
2022/08/21 12:30:53;;;;;;;2.25;1.83;;;22.60;97.90;;;;;;6337682;28;20301;-66
2022/08/21 12:34:03;;;;;;;2.38;2.22;;;22.60;99.70;;;;;;6337147;28;20293;-66
2022/08/21 12:37:22;;;;;;;1.90;1.75;;;22.70;98.40;;;;;;6338086;28;20265;-66
2022/08/21 12:40:38;;;;;;;5.18;1.52;;;22.70;97.40;;;;;;6336784;28;20306;-66
2022/08/21 12:43:46;;;;;;;2.47;1.73;;;22.70;97.60;;;;;;6336709;28;20329;-66
2022/08/21 12:46:59;;;;;;;3.92;2.20;;;22.60;96.90;;;;;;6319666;28;20270;-66
2022/08/21 12:50:08;;;;;;;5.15;1.83;;;22.40;96.70;;;;;;6336457;28;20298;-66
2022/08/21 12:53:27;;;;;;;2.83;2.00;;;22.60;97.60;;;;;;6335639;28;20275;-65
2022/08/21 12:56:35;;;;;;;2.05;1.60;;;22.70;97.30;;;;;;6337414;28;20556;-65
2022/08/21 12:59:41;;;;;;;1.30;1.20;;;22.70;96.90;;;;;;6336669;28;20382;-67
2022/08/21 13:02:49;;;;;;;1.42;1.33;;;22.60;94.50;;;;;;6336582;28;20269;-66
2022/08/21 13:05:54;;;;;;;3.28;2.97;;;22.70;95.60;;;;;;6311300;28;20354;-65
2022/08/21 13:09:07;;;;;;;1.27;1.27;;;22.70;94.10;;;;;;6311675;28;20294;-66
2022/08/21 13:12:15;;;;;;;1.45;1.38;;;22.70;94.10;;;;;;6310990;28;20270;-65
2022/08/21 13:15:28;;;;;;;1.55;1.45;;;22.70;94.30;;;;;;6311050;28;20294;-66
2022/08/21 13:18:53;;;;;;;3.80;1.38;;;22.80;94.20;;;;;;6311111;28;20303;-66
2022/08/21 13:22:01;;;;;;;1.45;1.20;;;22.90;94.80;;;;;;6311498;28;20448;-65
2022/08/21 13:25:31;;;;;;;2.10;1.48;;;22.90;93.00;;;;;;6310631;28;20474;-65
2022/08/21 13:28:38;;;;;;;1.20;1.20;;;22.70;93.00;;;;;;6310727;28;20294;-65
2022/08/21 13:31:49;;;;;;;1.58;1.33;;;22.80;93.50;;;;;;6310965;28;20286;-66
2022/08/21 13:34:54;;;;;;;1.33;1.20;;;22.80;93.80;;;;;;6310295;28;20294;-65
2022/08/21 13:38:00;;;;;;;1.10;1.10;;;22.90;94.20;;;;;;6311083;28;20270;-65
2022/08/21 13:41:10;;;;;;;2.05;1.27;;;22.90;92.60;;;;;;6309951;28;20291;-66
2022/08/21 13:44:19;;;;;;;1.02;0.98;;;22.90;92.20;;;;;;6310589;28;20306;-66
2022/08/21 13:47:25;;;;;;;1.20;1.20;;;22.80;90.30;;;;;;6310683;28;20266;-67
2022/08/21 13:50:30;;;;;;;1.17;1.10;;;22.80;91.70;;;;;;6309122;28;20487;-66
2022/08/21 13:53:45;;;;;;;1.30;1.25;;;23.00;92.00;;;;;;6310399;28;20344;-67
2022/08/21 13:56:50;;;;;;;2.75;1.42;;;23.00;93.20;;;;;;6310354;28;20267;-67
2022/08/21 14:03:35;;;;;;;1.33;1.33;;;23.00;90.90;;;;;;6327154;28;20771;-65
2022/08/21 14:06:40;;;;;;;1.10;1.05;;;23.00;90.60;;;;;;6272979;28;20427;-67
2022/08/21 14:09:46;;;;;;;1.90;1.80;;;22.70;88.70;;;;;;6271359;28;20583;-65
2022/08/21 14:12:56;;;;;;;1.50;1.50;;;22.80;90.90;;;;;;6282289;28;20270;-65
2022/08/21 14:16:04;;;;;;;1.70;1.60;;;22.90;93.30;;;;;;6281513;28;20597;-65
2022/08/21 14:19:18;;;;;;;1.60;1.45;;;22.90;92.80;;;;;;6272623;28;20299;-66
2022/08/21 14:22:38;;;;;;;1.30;1.30;;;23.00;93.90;;;;;;6257055;28;20292;-66
2022/08/21 14:25:45;;;;;;;3.92;1.48;;;23.00;91.40;;;;;;6278227;28;20295;-66
2022/08/21 14:28:50;;;;;;;1.45;1.45;;;23.00;91.60;;;;;;6290307;28;20477;-66
2022/08/21 14:31:58;;;;;;;1.40;1.30;;;23.10;92.30;;;;;;6257028;28;20359;-66
2022/08/21 14:35:06;;;;;;;2.35;1.40;;;23.10;90.70;;;;;;6272933;28;20295;-66
2022/08/21 14:38:17;;;;;;;1.33;1.33;;;23.10;92.80;;;;;;6279482;28;20271;-67
2022/08/21 14:41:25;;;;;;;1.40;1.30;;;23.10;91.10;;;;;;6256690;28;20291;-66
2022/08/21 14:44:31;;;;;;;1.55;1.55;;;23.10;91.00;;;;;;6268096;28;20299;-66
2022/08/21 14:47:37;;;;;;;2.28;2.17;;;23.10;92.80;;;;;;6280883;28;20267;-67
2022/08/21 14:50:43;;;;;;;2.05;2.00;;;23.10;92.10;;;;;;6259422;28;20299;-67
2022/08/21 14:53:49;;;;;;;1.77;1.67;;;23.10;93.40;;;;;;6262232;28;20299;-66
2022/08/21 14:56:55;;;;;;;1.83;1.50;;;23.00;91.70;;;;;;6280771;28;20271;-66
2022/08/21 15:00:00;;;;;;;1.40;1.40;;;23.00;91.10;;;;;;6264829;28;20323;-66
2022/08/21 15:03:06;;;;;;;2.08;1.88;;;23.00;91.60;;;;;;6255885;28;20308;-66
2022/08/21 15:06:13;;;;;;;1.52;1.45;;;23.00;91.70;;;;;;6280651;28;20275;-66
2022/08/21 15:09:19;;;;;;;1.63;1.63;;;22.90;90.80;;;;;;6270423;28;20296;-65
2022/08/21 15:12:24;;;;;;;1.50;1.40;;;22.90;90.80;;;;;;6252329;28;20427;-66
2022/08/21 15:15:30;;;;;;;1.98;1.58;;;22.90;91.30;;;;;;6259119;28;20300;-66
2022/08/21 15:18:35;;;;;;;1.45;1.40;;;22.90;92.10;;;;;;6259888;28;20292;-66
2022/08/21 15:21:42;;;;;;;1.58;1.45;;;22.90;92.60;;;;;;6239400;28;20569;-66
2022/08/21 15:24:47;;;;;;;3.22;1.23;;;22.90;92.80;;;;;;6239317;28;20296;-67
2022/08/21 15:27:52;;;;;;;2.05;1.55;;;22.90;94.00;;;;;;6239854;28;20272;-67
2022/08/21 15:30:57;;;;;;;1.55;1.45;;;23.00;94.10;;;;;;6238544;28;20292;-66
2022/08/21 15:34:03;;;;;;;1.65;1.55;;;23.00;93.30;;;;;;6238948;28;20332;-66
2022/08/21 15:37:10;;;;;;;3.22;1.30;;;23.00;92.60;;;;;;6238863;28;20288;-66
2022/08/21 15:40:16;;;;;;;1.48;1.48;;;23.00;91.60;;;;;;6238856;28;20300;-66
2022/08/21 15:43:26;;;;;;;5.43;1.77;;;23.00;94.30;;;;;;6238476;28;20451;-66
2022/08/21 15:46:34;;;;;;;2.05;1.88;;;22.90;92.50;;;;;;6239090;28;20268;-66
2022/08/21 15:49:42;;;;;;;2.53;2.50;;;22.90;94.50;;;;;;6238447;28;20295;-65
2022/08/21 15:52:49;;;;;;;19.67;17.67;;;22.70;91.80;;;;;;6238844;28;20277;-66
2022/08/21 15:55:55;;;;;;;6.93;6.53;;;22.80;91.80;;;;;;6238234;28;20608;-66
2022/08/21 15:59:02;;;;;;;4.80;4.60;;;22.90;94.10;;;;;;6238518;28;20296;-65
2022/08/21 16:02:13;;;;;;;2.03;1.92;;;22.90;96.10;;;;;;6238178;28;20300;-66
2022/08/21 16:05:20;;;;;;;2.42;2.15;;;22.80;93.20;;;;;;6238316;28;20297;-66
2022/08/21 16:08:26;;;;;;;2.13;1.80;;;22.80;93.60;;;;;;6238336;28;21817;-69
2022/08/21 16:11:31;;;;;;;1.95;1.38;;;22.90;93.50;;;;;;6238897;28;20265;-67
2022/08/21 16:14:37;;;;;;;1.75;1.42;;;22.80;90.60;;;;;;6238098;28;20296;-66
2022/08/21 16:17:47;;;;;;;2.40;1.35;;;22.80;89.70;;;;;;6238483;28;20272;-67
2022/08/21 16:20:52;;;;;;;1.23;1.23;;;22.80;91.40;;;;;;6237831;28;20296;-67
2022/08/21 16:23:59;;;;;;;2.00;1.70;;;22.80;88.40;;;;;;6236933;28;20300;-66
2022/08/21 16:27:06;;;;;;;1.40;1.30;;;22.80;91.10;;;;;;6237525;28;20292;-66
2022/08/21 16:30:14;;;;;;;1.88;1.45;;;22.80;91.60;;;;;;6237443;28;20304;-66